Aurora, Maine
Current Conditions -  °F | °C
As of 1:53 PM on Saturday 20 Dec 2014 (Local Time) from KBGR Reporting Station
Overcast Overcast  
Wind Chill: 12°   Ceiling: 1300
Heat Index: 23°   Visibility: 10mi
Dew Point: 18°   Wind: 10mph
Humidity: 81%   Direction: 360°N
Pressure: 30.33"   Gusts: NA
Location:  44.85°N, 68.33°W
Report Text: KBGR 201853Z 36009KT 10SM OVC013 M05/M08 A3033 RMK AO2 SLP275 T10501078
Loading
Personal Weather Stations






























Interactive Weather Map New forecast layout! Learn more

10-Day Weather Forecast

Advertisements
Track Severe Weather on mobile